Time;durP1;ratioP1;P1;durP2;ratioP2;P2;SDS_P1;SDS_P2;PMS_P1;PMS_P2;Temp;Humidity;BMP_temperature;BMP_pressure;BME280_temperature;BME280_humidity;BME280_pressure;Samples;Min_cycle;Max_cycle;Signal;HPM_P1;HPM_P2
2021/04/26 00:00:30;;;;;;;20.23;14.80;;;;;;;3.35;60.47;100778.20;114154;1200;103095;-80
2021/04/26 00:03:02;;;;;;;26.10;17.30;;;;;;;3.37;60.87;100776.45;114114;1199;103303;-80
2021/04/26 00:05:48;;;;;;;24.40;17.73;;;;;;;3.36;60.19;100777.34;113716;1200;103101;-80
2021/04/26 00:08:27;;;;;;;26.23;18.47;;;;;;;3.25;60.68;100776.34;113808;1200;103899;-80
2021/04/26 00:11:08;;;;;;;29.80;18.85;;;;;;;3.21;60.99;100783.31;113863;1200;103216;-79
2021/04/26 00:13:50;;;;;;;29.70;20.45;;;;;;;3.27;60.33;100779.88;113921;1200;103573;-81
2021/04/26 00:16:33;;;;;;;26.20;19.65;;;;;;;3.18;61.26;100773.64;113700;1200;103326;-80
2021/04/26 00:19:15;;;;;;;30.00;19.63;;;;;;;3.20;61.59;100773.68;113795;1203;103772;-79
2021/04/26 00:21:43;;;;;;;30.90;21.10;;;;;;;3.26;60.80;100768.45;113876;1200;103277;-80
2021/04/26 00:24:10;;;;;;;26.33;18.17;;;;;;;3.29;60.40;100773.77;114074;1196;103120;-80
2021/04/26 00:26:36;;;;;;;30.97;21.93;;;;;;;3.32;60.36;100771.16;113353;1196;103095;-79
2021/04/26 00:29:07;;;;;;;32.10;24.65;;;;;;;3.28;61.67;100765.83;113549;1196;103108;-80
2021/04/26 00:31:34;;;;;;;27.80;19.83;;;;;;;3.18;61.98;100775.40;113636;1196;103086;-79
2021/04/26 00:34:01;;;;;;;27.20;20.87;;;;;;;3.13;61.42;100763.94;113578;1196;103108;-81
2021/04/26 00:36:29;;;;;;;29.17;21.53;;;;;;;3.00;61.51;100760.33;113850;1196;103093;-80
2021/04/26 00:39:08;;;;;;;30.20;21.70;;;;;;;3.04;61.59;100770.01;113492;1196;103243;-79
2021/04/26 00:41:39;;;;;;;26.25;20.65;;;;;;;3.11;60.92;100778.84;113832;1196;103073;-79
2021/04/26 00:44:33;;;;;;;25.75;19.30;;;;;;;3.11;60.97;100778.84;113251;1199;103682;-80
2021/04/26 00:47:22;;;;;;;28.53;19.53;;;;;;;3.20;61.39;100770.14;113284;1202;103303;-80
2021/04/26 00:49:50;;;;;;;31.90;21.10;;;;;;;3.15;61.74;100765.72;113740;1203;103198;-79
2021/04/26 00:52:20;;;;;;;30.53;21.70;;;;;;;3.13;60.97;100763.94;114098;1203;103632;-79
2021/04/26 00:54:49;;;;;;;28.10;20.40;;;;;;;3.12;61.28;100760.44;114255;1203;103140;-79
2021/04/26 00:57:30;;;;;;;29.70;18.85;;;;;;;3.06;61.77;100754.23;113568;1206;103092;-79
2021/04/26 01:00:00;;;;;;;28.20;21.65;;;;;;;3.12;60.79;100759.53;113689;1204;103272;-79
2021/04/26 01:02:33;;;;;;;32.20;22.20;;;;;;;3.11;60.40;100756.03;113821;1206;103063;-79
2021/04/26 01:05:19;;;;;;;32.40;21.30;;;;;;;3.10;60.47;100762.16;113110;1206;103239;-80
2021/04/26 01:07:47;;;;;;;28.43;19.97;;;;;;;3.08;61.50;100761.28;113348;1206;103716;-80
2021/04/26 01:10:17;;;;;;;30.70;20.43;;;;;;;2.97;61.56;100769.06;113261;1206;103967;-81
2021/04/26 01:13:04;;;;;;;29.65;21.35;;;;;;;3.03;60.66;100759.47;113197;1206;103596;-81
2021/04/26 01:16:18;;;;;;;31.10;23.80;;;;;;;3.05;61.54;100761.22;113528;1206;103115;-80
2021/04/26 01:18:53;;;;;;;34.55;23.25;;;;;;;2.83;61.71;100755.73;113503;1206;103355;-80
2021/04/26 01:21:42;;;;;;;31.40;21.05;;;;;;;2.74;61.77;100750.38;114079;1199;104877;-80
2021/04/26 01:24:12;;;;;;;26.70;21.28;;;;;;;2.72;62.09;100756.48;113874;1200;103338;-80
2021/04/26 01:26:52;;;;;;;28.17;21.87;;;;;;;2.75;61.33;100762.67;114303;1196;103248;-80
2021/04/26 01:29:36;;;;;;;28.35;20.85;;;;;;;2.59;62.26;100758.11;114086;1196;103105;-80
2021/04/26 01:32:35;;;;;;;33.15;21.53;;;;;;;2.56;63.13;100760.67;116728;1196;101077;-80
2021/04/26 01:35:11;;;;;;;28.58;20.38;;;;;;;2.50;63.48;100753.60;114648;1196;103330;-80
2021/04/26 01:37:43;;;;;;;31.93;21.40;;;;;;;2.58;62.58;100758.96;114276;1196;103245;-80
2021/04/26 01:40:12;;;;;;;29.50;22.13;;;;;;;2.62;63.57;100750.24;114777;1196;103242;-80
2021/04/26 01:42:43;;;;;;;38.85;24.05;;;;;;;2.62;62.90;100750.24;114307;1196;103166;-80
2021/04/26 01:45:12;;;;;;;26.40;22.53;;;;;;;2.71;62.93;100752.98;115942;1196;103016;-80
2021/04/26 01:47:40;;;;;;;23.97;18.87;;;;;;;2.64;63.89;100744.14;114551;1196;103057;-80
2021/04/26 01:50:10;;;;;;;33.35;21.80;;;;;;;2.64;63.63;100745.90;113907;1196;103847;-80
2021/04/26 01:52:37;;;;;;;26.23;20.20;;;;;;;2.70;63.12;100745.08;113808;1196;103201;-81
2021/04/26 01:55:06;;;;;;;26.57;19.27;;;;;;;2.60;63.62;100749.33;113574;1196;103274;-79
2021/04/26 01:57:49;;;;;;;40.80;23.90;;;;;;;2.58;63.64;100748.44;113711;1196;103092;-80
2021/04/26 02:00:21;;;;;;;25.90;20.90;;;;;;;2.64;63.44;100745.90;113390;1196;103153;-79
2021/04/26 02:02:54;;;;;;;32.48;23.30;;;;;;;2.73;63.17;100755.63;113501;1197;103523;-79
2021/04/26 02:05:22;;;;;;;26.88;21.33;;;;;;;2.75;63.60;100746.89;113374;1196;103118;-80
2021/04/26 02:07:50;;;;;;;24.70;20.00;;;;;;;2.73;63.35;100747.73;113443;1196;103294;-79
2021/04/26 02:10:20;;;;;;;26.05;19.48;;;;;;;2.77;62.95;100741.64;113684;1196;103088;-80
2021/04/26 02:12:50;;;;;;;24.20;18.65;;;;;;;2.80;62.94;100746.92;114241;1196;103076;-80
2021/04/26 02:15:19;;;;;;;26.50;18.33;;;;;;;2.83;63.70;100747.85;114320;1196;103032;-80
2021/04/26 02:17:47;;;;;;;23.75;16.40;;;;;;;2.83;62.97;100731.20;114229;1196;103240;-80
2021/04/26 02:20:16;;;;;;;18.35;15.65;;;;;;;2.86;63.78;100732.98;114146;1196;103154;-78
2021/04/26 02:22:43;;;;;;;21.00;16.57;;;;;;;2.90;63.39;100734.78;114439;1196;103248;-80
2021/04/26 02:25:11;;;;;;;25.73;15.85;;;;;;;2.91;63.11;100731.28;114184;1196;103124;-79
2021/04/26 02:27:39;;;;;;;24.53;15.80;;;;;;;2.89;63.03;100733.88;114332;1196;103175;-80
2021/04/26 02:30:07;;;;;;;23.30;17.00;;;;;;;2.92;62.46;100738.28;114255;1197;103204;-80
2021/04/26 02:33:04;;;;;;;18.80;15.13;;;;;;;2.94;62.48;100739.20;114325;1196;103102;-81
2021/04/26 02:35:37;;;;;;;19.87;15.30;;;;;;;2.95;62.45;100733.95;114175;1196;103958;-79
2021/04/26 02:38:18;;;;;;;25.63;17.53;;;;;;;2.94;62.83;100731.30;114513;1196;103130;-80
2021/04/26 02:40:57;;;;;;;19.78;14.95;;;;;;;2.98;62.78;100733.09;114313;1199;103153;-80
2021/04/26 02:43:42;;;;;;;20.95;16.60;;;;;;;3.01;62.65;100727.86;114210;1196;103133;-80
2021/04/26 02:46:15;;;;;;;20.00;13.20;;;;;;;3.01;62.35;100725.23;114525;1196;103130;-80
2021/04/26 02:48:46;;;;;;;23.77;16.63;;;;;;;3.10;62.47;100748.13;114275;1196;103271;-80
2021/04/26 02:51:17;;;;;;;22.27;16.47;;;;;;;3.06;62.12;100741.95;114202;1196;103780;-80
2021/04/26 02:53:48;;;;;;;18.18;14.83;;;;;;;2.99;62.51;100737.50;114753;1196;103479;-79
2021/04/26 02:56:20;;;;;;;16.50;14.70;;;;;;;2.99;62.20;100721.72;114174;1196;103246;-80
2021/04/26 02:58:51;;;;;;;20.20;14.27;;;;;;;2.97;62.74;100729.59;114271;1196;103252;-80
2021/04/26 03:01:18;;;;;;;20.43;15.38;;;;;;;2.99;62.91;100726.98;114068;1196;103095;-80
2021/04/26 03:03:45;;;;;;;17.55;14.95;;;;;;;2.99;62.05;100733.11;114008;1196;103211;-80
2021/04/26 03:06:15;;;;;;;15.10;12.83;;;;;;;2.99;62.14;100724.34;113958;1196;103208;-80
2021/04/26 03:08:43;;;;;;;17.10;13.90;;;;;;;2.95;62.39;100725.19;114065;1196;103278;-80
2021/04/26 03:11:26;;;;;;;21.63;14.38;;;;;;;2.90;61.88;100725.13;114100;1196;103134;-79
2021/04/26 03:14:15;;;;;;;16.55;13.18;;;;;;;2.95;62.13;100722.55;114837;1196;103246;-80
2021/04/26 03:16:48;;;;;;;14.67;13.00;;;;;;;2.96;62.23;100719.03;114013;1196;103091;-82
2021/04/26 03:19:17;;;;;;;17.87;12.50;;;;;;;2.96;62.57;100716.40;114145;1196;103840;-80
2021/04/26 03:21:49;;;;;;;20.20;13.33;;;;;;;3.07;62.04;100727.06;114119;1196;103108;-81
2021/04/26 03:24:17;;;;;;;17.33;13.48;;;;;;;3.08;62.56;100720.91;114251;1199;103562;-80
2021/04/26 03:26:50;;;;;;;25.58;13.93;;;;;;;3.06;62.13;100714.77;114464;1194;103198;-80
2021/04/26 03:29:23;;;;;;;14.77;12.97;;;;;;;3.10;61.97;100722.69;114378;1197;103220;-80
2021/04/26 03:31:50;;;;;;;17.00;12.03;;;;;;;3.11;62.25;100723.59;114191;1196;104733;-80
2021/04/26 03:34:17;;;;;;;15.28;12.78;;;;;;;3.16;61.19;100727.15;114350;1196;103086;-80
2021/04/26 03:36:45;;;;;;;16.20;13.17;;;;;;;3.16;60.78;100730.65;114319;1196;103152;-81
2021/04/26 03:39:16;;;;;;;13.87;11.93;;;;;;;3.13;61.59;100724.47;114274;1196;103266;-79
2021/04/26 03:41:46;;;;;;;17.40;12.10;;;;;;;3.21;61.89;100727.17;114425;1196;103645;-79
2021/04/26 03:44:25;;;;;;;17.45;12.33;;;;;;;3.25;60.73;100729.87;114478;1196;103281;-80
2021/04/26 03:47:04;;;;;;;16.15;11.95;;;;;;;3.22;61.45;100732.45;114320;1196;103178;-79
2021/04/26 03:49:46;;;;;;;15.17;11.83;;;;;;;3.15;61.36;100730.64;114085;1199;103275;-79
2021/04/26 03:52:14;;;;;;;19.13;13.70;;;;;;;3.14;61.35;100732.37;113840;1199;103351;-81
2021/04/26 03:54:41;;;;;;;14.80;12.75;;;;;;;3.21;61.38;100738.57;113841;1199;103284;-80
2021/04/26 03:57:08;;;;;;;18.13;14.53;;;;;;;3.18;61.04;100743.81;113804;1200;103905;-79
2021/04/26 03:59:43;;;;;;;18.30;13.25;;;;;;;3.11;61.90;100747.27;113947;1199;103130;-81
2021/04/26 04:02:13;;;;;;;16.30;11.77;;;;;;;3.09;61.71;100744.63;114171;1200;103086;-80
2021/04/26 04:04:46;;;;;;;16.30;12.53;;;;;;;3.04;61.76;100740.16;114065;1200;103083;-80
2021/04/26 04:07:19;;;;;;;12.15;10.85;;;;;;;2.98;61.34;100730.47;114232;1200;103867;-80
2021/04/26 04:09:48;;;;;;;13.60;11.78;;;;;;;2.99;60.99;100729.61;113989;1199;103067;-80
2021/04/26 04:12:16;;;;;;;15.30;11.70;;;;;;;2.96;61.83;100740.08;113877;1199;103389;-80
2021/04/26 04:14:44;;;;;;;13.85;10.80;;;;;;;3.00;61.12;100741.91;113910;1199;103284;-79
2021/04/26 04:17:10;;;;;;;15.80;12.05;;;;;;;2.99;61.70;100733.11;113978;1198;103313;-79
2021/04/26 04:19:41;;;;;;;14.90;11.85;;;;;;;2.97;61.85;100744.48;113819;1200;103300;-80
2021/04/26 04:22:12;;;;;;;14.10;12.43;;;;;;;3.03;61.63;100739.30;113771;1199;103293;-80
2021/04/26 04:24:44;;;;;;;14.58;12.98;;;;;;;3.00;61.95;100744.53;113904;1199;103056;-79
2021/04/26 04:27:16;;;;;;;13.90;11.97;;;;;;;3.01;61.51;100736.66;114079;1199;103115;-80
2021/04/26 04:29:43;;;;;;;15.18;11.33;;;;;;;2.99;62.03;100741.00;114386;1200;103108;-80
2021/04/26 04:32:09;;;;;;;16.40;11.47;;;;;;;2.94;61.35;100739.20;114273;1196;103157;-80
2021/04/26 04:34:36;;;;;;;13.67;10.97;;;;;;;2.95;61.59;100743.60;114284;1196;103197;-80
2021/04/26 04:37:05;;;;;;;12.67;10.80;;;;;;;2.93;61.59;100745.31;114260;1196;103125;-80
2021/04/26 04:39:32;;;;;;;16.27;11.43;;;;;;;2.92;62.18;100751.44;114251;1196;103194;-79
2021/04/26 04:41:58;;;;;;;15.03;12.83;;;;;;;2.95;61.98;100748.86;114181;1196;103648;-82
2021/04/26 04:44:26;;;;;;;20.03;11.65;;;;;;;2.95;61.79;100756.75;114312;1196;103185;-80
2021/04/26 04:46:53;;;;;;;17.65;10.40;;;;;;;2.97;61.72;100755.01;114344;1196;103508;-80
2021/04/26 04:49:20;;;;;;;15.70;10.73;;;;;;;3.00;61.63;100757.69;114122;1196;103061;-79
2021/04/26 04:51:47;;;;;;;11.10;9.25;;;;;;;2.99;61.98;100762.05;114182;1196;103224;-80
2021/04/26 04:54:15;;;;;;;12.70;9.30;;;;;;;3.01;62.06;100762.97;114077;1196;103092;-80
2021/04/26 04:56:42;;;;;;;10.38;9.15;;;;;;;3.04;62.36;100770.01;114295;1196;103476;-80
2021/04/26 04:59:08;;;;;;;13.25;8.15;;;;;;;3.04;61.63;100762.11;114195;1196;103213;-80
2021/04/26 05:01:38;;;;;;;10.83;9.60;;;;;;;3.14;61.61;100769.22;114343;1196;103201;-79
2021/04/26 05:04:05;;;;;;;10.03;8.90;;;;;;;3.20;61.68;100762.25;114238;1196;103117;-80
2021/04/26 05:06:32;;;;;;;11.10;9.28;;;;;;;3.24;60.96;100766.67;114101;1196;103198;-79
2021/04/26 05:09:00;;;;;;;11.23;9.18;;;;;;;3.30;61.23;100764.11;114233;1196;103355;-80
2021/04/26 05:11:27;;;;;;;11.53;7.95;;;;;;;3.29;61.46;100762.34;114311;1199;103191;-80
2021/04/26 05:13:53;;;;;;;8.57;7.73;;;;;;;3.34;60.96;100765.90;114124;1196;103179;-80
2021/04/26 05:16:26;;;;;;;9.10;8.13;;;;;;;3.37;60.22;100757.16;114286;1197;103179;-80
2021/04/26 05:18:53;;;;;;;11.48;8.33;;;;;;;3.42;60.86;100758.08;114163;1196;103221;-79
2021/04/26 05:21:20;;;;;;;10.30;8.55;;;;;;;3.52;60.88;100754.66;114105;1196;103192;-79
2021/04/26 05:23:49;;;;;;;10.95;9.23;;;;;;;3.53;60.30;100761.67;114222;1194;103150;-80
2021/04/26 05:26:17;;;;;;;7.33;6.67;;;;;;;3.59;59.51;100760.86;114148;1196;103686;-79
2021/04/26 05:28:43;;;;;;;8.08;7.08;;;;;;;3.57;58.87;100758.19;114118;1196;103850;-79
2021/04/26 05:31:11;;;;;;;11.45;8.50;;;;;;;3.65;58.95;100759.16;114171;1196;103176;-79
2021/04/26 05:33:38;;;;;;;10.03;8.38;;;;;;;3.67;58.88;100759.16;114267;1196;103208;-79
2021/04/26 05:36:04;;;;;;;9.63;8.08;;;;;;;3.72;58.61;100757.45;114285;1196;103613;-80
2021/04/26 05:38:42;;;;;;;8.50;6.85;;;;;;;3.82;59.40;100756.63;116794;1197;101234;-81
2021/04/26 05:41:18;;;;;;;8.83;7.10;;;;;;;3.95;58.60;100759.37;116737;1196;100976;-79
2021/04/26 05:43:48;;;;;;;8.00;7.20;;;;;;;4.09;57.56;100762.98;114251;1196;103749;-80
2021/04/26 05:46:24;;;;;;;9.95;6.40;;;;;;;4.13;57.08;100758.58;114268;1196;103278;-79
2021/04/26 05:48:59;;;;;;;8.03;5.90;;;;;;;4.19;56.78;100759.50;114287;1196;103239;-81
2021/04/26 05:51:32;;;;;;;7.20;6.10;;;;;;;4.29;56.93;100759.55;115573;1196;103022;-81
2021/04/26 05:54:18;;;;;;;6.13;5.47;;;;;;;4.29;56.45;100756.91;115653;1196;103191;-79
2021/04/26 05:56:48;;;;;;;6.30;5.60;;;;;;;4.30;56.67;100766.59;115001;1196;103197;-81
2021/04/26 05:59:20;;;;;;;7.60;6.65;;;;;;;4.31;56.51;100771.00;116648;1196;101160;-79
2021/04/26 06:01:48;;;;;;;6.87;5.43;;;;;;;4.30;56.66;100772.73;115462;1196;103030;-82
2021/04/26 06:04:19;;;;;;;5.63;5.03;;;;;;;4.32;57.05;100770.13;114200;1196;104023;-83
2021/04/26 06:06:55;;;;;;;7.83;5.63;;;;;;;4.39;56.80;100774.55;114427;1196;103061;-81
2021/04/26 06:09:27;;;;;;;6.60;6.00;;;;;;;4.42;56.21;100777.20;114569;1196;103121;-82
2021/04/26 06:11:57;;;;;;;6.27;5.00;;;;;;;4.45;56.67;100779.87;114076;1196;103091;-81
2021/04/26 06:14:25;;;;;;;6.53;5.13;;;;;;;4.43;56.31;100778.97;114190;1196;103120;-83
2021/04/26 06:16:55;;;;;;;5.10;4.67;;;;;;;4.47;56.90;100785.14;114243;1196;103214;-81
2021/04/26 06:19:23;;;;;;;9.30;5.33;;;;;;;4.50;55.92;100793.93;114294;1196;103196;-81
2021/04/26 06:22:06;;;;;;;5.95;4.55;;;;;;;4.53;55.87;100785.16;113749;1198;103284;-81
2021/04/26 06:24:37;;;;;;;5.10;4.53;;;;;;;4.60;56.07;100781.69;113792;1199;103115;-82
2021/04/26 06:27:06;;;;;;;5.20;4.70;;;;;;;4.69;55.62;100786.10;113821;1196;103280;-83
2021/04/26 06:29:32;;;;;;;4.45;4.05;;;;;;;4.70;55.91;100779.95;114684;1196;103121;-81
2021/04/26 06:31:59;;;;;;;6.47;3.90;;;;;;;4.79;55.59;100787.04;114223;1196;103248;-81
2021/04/26 06:34:27;;;;;;;6.43;3.93;;;;;;;4.85;55.13;100782.67;114063;1196;103329;-81
2021/04/26 06:36:54;;;;;;;5.90;4.75;;;;;;;4.92;55.48;100780.92;114038;1196;103111;-80
2021/04/26 06:39:21;;;;;;;4.88;4.25;;;;;;;5.02;54.52;100785.36;114205;1196;103066;-83
2021/04/26 06:41:47;;;;;;;7.80;4.87;;;;;;;5.10;54.11;100781.84;114246;1196;103879;-84
2021/04/26 06:44:14;;;;;;;5.63;4.27;;;;;;;5.19;54.31;100785.38;114207;1196;103123;-81
2021/04/26 06:46:41;;;;;;;4.03;3.60;;;;;;;5.30;53.46;100782.75;114065;1196;103181;-81
2021/04/26 06:49:08;;;;;;;5.40;4.77;;;;;;;5.33;53.87;100789.80;114152;1196;103191;-82
2021/04/26 06:51:35;;;;;;;3.73;3.43;;;;;;;5.39;52.03;100786.31;114137;1196;103131;-82
2021/04/26 06:54:03;;;;;;;3.55;3.25;;;;;;;5.51;52.28;100795.11;115203;1196;103048;-80
2021/04/26 06:56:31;;;;;;;3.85;3.28;;;;;;;5.61;51.56;100789.83;114005;1199;103280;-80
2021/04/26 06:58:58;;;;;;;3.20;2.90;;;;;;;5.69;50.60;100788.06;114136;1197;103178;-80
2021/04/26 07:01:26;;;;;;;5.08;3.68;;;;;;;5.63;50.91;100793.38;114142;1196;103542;-81
2021/04/26 07:03:54;;;;;;;5.90;3.80;;;;;;;5.56;50.72;100796.88;114373;1197;103098;-80
2021/04/26 07:06:23;;;;;;;3.87;3.27;;;;;;;5.61;51.06;100792.47;114054;1196;103223;-80
2021/04/26 07:08:59;;;;;;;3.50;2.75;;;;;;;5.72;49.78;100797.76;114296;1196;103194;-79
2021/04/26 07:11:46;;;;;;;3.80;3.50;;;;;;;5.78;49.68;100795.13;114561;1196;103166;-80
2021/04/26 07:14:16;;;;;;;4.60;3.45;;;;;;;5.90;49.13;100796.89;114092;1196;103124;-79
2021/04/26 07:16:43;;;;;;;3.38;3.13;;;;;;;5.94;49.87;100788.06;114121;1197;103217;-83
2021/04/26 07:19:16;;;;;;;4.77;3.53;;;;;;;6.07;49.70;100788.98;114077;1196;103582;-81
2021/04/26 07:21:43;;;;;;;4.07;3.07;;;;;;;6.20;49.45;100782.78;114156;1196;103162;-80
2021/04/26 07:24:14;;;;;;;4.23;3.13;;;;;;;6.25;47.76;100774.81;114141;1196;103211;-80
2021/04/26 07:26:42;;;;;;;2.88;2.68;;;;;;;6.21;46.63;100783.64;114542;1196;103092;-81
2021/04/26 07:29:09;;;;;;;3.73;2.80;;;;;;;6.09;47.35;100782.80;114662;1196;103535;-82
2021/04/26 07:31:36;;;;;;;3.80;3.30;;;;;;;6.06;46.63;100781.92;114163;1196;103172;-81
2021/04/26 07:34:03;;;;;;;4.40;2.60;;;;;;;6.07;45.57;100787.20;114462;1196;103907;-83
2021/04/26 07:36:30;;;;;;;2.40;2.30;;;;;;;6.09;44.68;100781.91;114627;1197;103041;-80
2021/04/26 07:38:57;;;;;;;3.40;3.13;;;;;;;6.13;45.22;100783.66;114192;1196;103272;-83
2021/04/26 07:41:24;;;;;;;3.05;2.45;;;;;;;6.30;45.03;100780.98;114447;1196;103692;-80
2021/04/26 07:43:51;;;;;;;2.60;2.40;;;;;;;6.34;44.60;100780.98;114130;1197;103156;-80
2021/04/26 07:46:18;;;;;;;3.28;2.53;;;;;;;6.41;45.10;100776.56;114348;1196;103210;-80
2021/04/26 07:48:45;;;;;;;3.90;3.10;;;;;;;6.55;45.23;100768.55;114061;1196;103086;-81
2021/04/26 07:51:12;;;;;;;2.50;2.30;;;;;;;6.57;43.24;100772.09;114172;1196;103047;-81
2021/04/26 07:53:39;;;;;;;2.28;2.08;;;;;;;6.52;42.36;100768.58;114021;1196;103204;-81
2021/04/26 07:56:06;;;;;;;2.23;2.07;;;;;;;6.61;41.55;100771.19;114327;1196;103101;-79
2021/04/26 07:58:37;;;;;;;2.60;2.43;;;;;;;6.66;40.84;100777.34;114116;1196;103092;-83
2021/04/26 08:01:09;;;;;;;2.77;2.57;;;;;;;6.55;41.30;100770.33;114640;1196;103096;-81
2021/04/26 08:03:38;;;;;;;3.80;2.20;;;;;;;6.50;40.08;100772.98;114178;1196;103114;-80
2021/04/26 08:06:06;;;;;;;2.63;2.43;;;;;;;6.64;40.89;100767.66;114112;1196;103334;-81
2021/04/26 08:08:33;;;;;;;3.50;2.10;;;;;;;6.83;39.87;100764.02;114135;1196;103095;-82
2021/04/26 08:11:15;;;;;;;1.70;1.60;;;;;;;7.03;40.01;100777.14;113993;1199;103351;-81
2021/04/26 08:13:47;;;;;;;2.07;1.87;;;;;;;7.17;38.71;100766.48;113870;1199;103274;-83
2021/04/26 08:16:18;;;;;;;2.17;1.77;;;;;;;7.32;37.42;100767.27;114067;1199;103954;-84
2021/04/26 08:18:52;;;;;;;2.20;2.00;;;;;;;7.50;37.97;100769.80;113936;1200;103207;-81
2021/04/26 08:21:23;;;;;;;1.90;1.80;;;;;;;7.72;37.68;100761.66;113752;1199;103341;-84
2021/04/26 08:23:57;;;;;;;2.00;1.90;;;;;;;7.95;38.25;100765.87;113740;1199;103296;-80
2021/04/26 08:26:39;;;;;;;3.48;1.83;;;;;;;7.95;37.77;100766.73;113490;1201;103189;-81
2021/04/26 08:29:13;;;;;;;1.90;1.80;;;;;;;7.93;37.54;100762.34;113600;1202;103293;-81
2021/04/26 08:31:41;;;;;;;2.10;1.90;;;;;;;8.21;36.80;100760.31;113512;1201;103832;-80
2021/04/26 08:34:09;;;;;;;3.00;2.30;;;;;;;8.29;37.12;100763.75;113690;1202;103222;-81
2021/04/26 08:36:38;;;;;;;1.80;1.70;;;;;;;8.42;37.79;100775.08;113167;1203;104065;-81
2021/04/26 08:39:05;;;;;;;4.63;2.33;;;;;;;8.45;36.45;100763.55;113272;1202;103934;-81
2021/04/26 08:41:33;;;;;;;2.47;1.93;;;;;;;8.73;36.18;100758.84;112991;1203;103420;-81
2021/04/26 08:44:05;;;;;;;1.80;1.70;;;;;;;8.64;35.38;100756.30;113264;1202;103782;-83
2021/04/26 08:46:31;;;;;;;2.87;2.10;;;;;;;8.54;35.85;100752.86;113038;1203;103182;-82
2021/04/26 08:48:59;;;;;;;2.00;1.90;;;;;;;8.47;35.27;100757.37;113045;1200;103206;-81
2021/04/26 08:51:30;;;;;;;2.37;1.80;;;;;;;8.82;34.67;100748.09;113227;1200;103280;-87
2021/04/26 08:53:58;;;;;;;1.77;1.60;;;;;;;9.33;32.45;100752.67;113878;1200;103216;-82
2021/04/26 08:56:28;;;;;;;4.85;1.90;;;;;;;9.52;33.66;100739.95;114355;1200;103309;-82
2021/04/26 08:58:58;;;;;;;1.50;1.40;;;;;;;9.62;31.93;100738.04;113308;1199;103312;-82
2021/04/26 09:01:31;;;;;;;3.53;2.00;;;;;;;9.80;31.74;100736.82;113610;1200;103377;-82
2021/04/26 09:04:24;;;;;;;2.40;2.20;;;;;;;9.81;31.37;100735.92;113909;1199;103322;-83
2021/04/26 09:06:59;;;;;;;1.60;1.50;;;;;;;9.94;31.57;100733.90;113981;1196;103189;-82
2021/04/26 09:09:39;;;;;;;3.30;1.95;;;;;;;10.17;31.38;100740.58;114603;1199;103123;-82
2021/04/26 09:12:22;;;;;;;1.43;1.33;;;;;;;11.38;30.28;100731.79;114538;1196;103111;-83
2021/04/26 09:15:06;;;;;;;2.05;1.50;;;;;;;11.48;29.92;100726.23;113928;1196;103114;-82
2021/04/26 09:17:34;;;;;;;1.40;1.30;;;;;;;11.54;28.72;100718.95;114046;1194;103586;-85
2021/04/26 09:20:26;;;;;;;1.95;1.45;;;;;;;12.80;27.29;100723.55;114000;1196;103216;-84
2021/04/26 09:23:05;;;;;;;2.03;1.47;;;;;;;14.87;22.94;100721.82;114927;1196;103090;-81
2021/04/26 09:25:42;;;;;;;1.40;1.07;;;;;;;15.46;23.25;100719.47;114155;1196;103021;-82
2021/04/26 09:28:20;;;;;;;1.50;0.93;;;;;;;14.54;23.42;100722.14;114252;1196;103482;-82
2021/04/26 09:31:03;;;;;;;1.40;1.20;;;;;;;13.51;25.15;100729.34;114023;1196;103258;-84
2021/04/26 09:33:38;;;;;;;2.28;1.25;;;;;;;12.93;25.88;100734.72;114752;1196;103240;-81
2021/04/26 09:36:16;;;;;;;1.23;1.05;;;;;;;12.29;26.20;100725.00;114321;1195;103102;-80
2021/04/26 09:39:04;;;;;;;2.60;1.50;;;;;;;11.63;26.64;100723.16;113957;1196;103612;-80
2021/04/26 09:41:34;;;;;;;3.45;2.05;;;;;;;11.32;27.61;100733.73;114094;1196;103070;-81
2021/04/26 09:44:02;;;;;;;5.75;2.03;;;;;;;10.98;28.31;100735.40;114276;1196;103530;-81
2021/04/26 09:46:52;;;;;;;2.43;1.27;;;;;;;10.98;29.40;100727.41;115554;1196;103233;-81
2021/04/26 09:49:25;;;;;;;3.13;1.70;;;;;;;13.34;26.08;100714.70;114109;1196;103185;-81
2021/04/26 09:51:57;;;;;;;2.20;1.20;;;;;;;13.14;24.76;100706.44;114533;1196;103173;-80
2021/04/26 09:54:35;;;;;;;2.53;1.33;;;;;;;12.67;26.97;100712.34;114278;1196;103246;-82
2021/04/26 09:57:03;;;;;;;1.67;1.30;;;;;;;12.17;26.09;100719.10;116662;1196;101447;-81
2021/04/26 09:59:30;;;;;;;2.10;1.50;;;;;;;11.62;26.02;100725.88;113595;1196;103603;-82
2021/04/26 10:02:00;;;;;;;1.80;1.20;;;;;;;11.18;26.81;100720.71;114097;1197;103268;-82
2021/04/26 10:04:42;;;;;;;2.05;1.30;;;;;;;10.82;27.65;100723.30;114302;1196;103140;-82
2021/04/26 10:07:15;;;;;;;3.15;1.55;;;;;;;10.50;28.72;100719.55;114360;1196;103152;-81
2021/04/26 10:09:47;;;;;;;1.57;1.47;;;;;;;10.58;29.02;100717.59;114681;1196;103122;-81
2021/04/26 10:12:17;;;;;;;2.70;1.53;;;;;;;10.75;28.40;100719.03;114175;1196;103182;-82
2021/04/26 10:14:46;;;;;;;2.30;1.37;;;;;;;11.52;28.94;100709.23;114158;1196;103108;-82
2021/04/26 10:17:37;;;;;;;2.03;1.60;;;;;;;13.63;26.91;100710.19;113958;1199;103239;-82
2021/04/26 10:20:08;;;;;;;2.38;1.10;;;;;;;13.80;24.80;100711.44;114327;1199;103179;-82
2021/04/26 10:22:49;;;;;;;2.03;1.30;;;;;;;13.03;24.85;100710.34;114060;1199;103488;-82
2021/04/26 10:25:24;;;;;;;2.93;2.63;;;;;;;12.46;24.68;100714.73;114125;1199;103399;-82
2021/04/26 10:27:57;;;;;;;2.10;1.40;;;;;;;11.94;25.57;100711.70;114157;1200;103194;-83
2021/04/26 10:30:26;;;;;;;8.35;3.80;;;;;;;12.36;25.52;100702.56;114263;1199;103278;-85
2021/04/26 10:33:06;;;;;;;3.03;1.63;;;;;;;12.51;26.70;100701.23;114418;1199;103009;-83
2021/04/26 10:36:01;;;;;;;1.40;1.10;;;;;;;13.16;25.09;100705.46;114725;1196;103252;-82
2021/04/26 10:38:39;;;;;;;2.18;1.65;;;;;;;15.28;23.88;100695.14;114192;1196;103193;-80
2021/04/26 10:41:14;;;;;;;2.30;2.10;;;;;;;16.61;22.57;100683.13;114222;1196;103264;-81
2021/04/26 10:43:57;;;;;;;1.83;1.40;;;;;;;16.71;22.14;100692.48;114107;1196;103242;-82
2021/04/26 10:46:27;;;;;;;2.40;1.40;;;;;;;16.10;21.26;100686.33;114543;1196;103169;-82
2021/04/26 10:49:06;;;;;;;5.40;1.90;;;;;;;15.28;22.05;100687.09;114209;1196;103216;-80
2021/04/26 10:51:35;;;;;;;2.20;1.70;;;;;;;14.51;22.56;100682.95;114326;1196;103088;-80
2021/04/26 10:54:05;;;;;;;2.05;1.35;;;;;;;13.82;23.60;100694.39;114184;1196;103149;-81
2021/04/26 10:56:36;;;;;;;2.55;1.20;;;;;;;13.67;24.02;100687.74;114282;1196;103095;-81
2021/04/26 10:59:21;;;;;;;2.08;1.00;;;;;;;13.33;24.08;100696.89;114100;1196;103163;-82
2021/04/26 11:02:07;;;;;;;2.80;1.70;;;;;;;13.07;26.12;100684.36;113740;1199;103418;-82
2021/04/26 11:04:37;;;;;;;3.60;1.33;;;;;;;12.91;25.30;100688.45;113640;1200;103198;-81
2021/04/26 11:07:18;;;;;;;1.93;1.70;;;;;;;12.74;25.49;100681.81;113761;1200;103647;-80
2021/04/26 11:09:50;;;;;;;1.70;1.23;;;;;;;12.53;25.37;100676.22;113961;1199;103246;-83
2021/04/26 11:12:34;;;;;;;8.10;3.37;;;;;;;12.31;26.00;100672.44;114580;1199;103212;-83
2021/04/26 11:15:19;;;;;;;3.63;2.10;;;;;;;11.92;27.25;100681.50;114246;1200;103188;-82
2021/04/26 11:17:47;;;;;;;5.43;2.87;;;;;;;11.58;27.97;100681.52;114080;1198;103191;-80
2021/04/26 11:20:18;;;;;;;4.00;2.85;;;;;;;11.40;27.03;100682.88;113857;1199;103943;-83
2021/04/26 11:22:49;;;;;;;3.10;1.95;;;;;;;11.23;28.39;100696.63;114519;1199;103184;-84
2021/04/26 11:25:38;;;;;;;2.00;1.80;;;;;;;10.93;27.92;100685.76;113683;1199;103338;-80
2021/04/26 11:28:11;;;;;;;2.50;2.10;;;;;;;10.72;30.25;100688.02;113832;1199;103306;-82
2021/04/26 11:31:04;;;;;;;6.07;2.47;;;;;;;10.50;32.38;100688.48;113560;1199;103628;-81
2021/04/26 11:33:58;;;;;;;4.33;2.43;;;;;;;10.27;32.80;100694.24;113663;1200;103368;-80